createdAt,value
2023-04-17T00:00:13.071Z,6.67
2023-04-17T00:02:41.236Z,7.40
2023-04-17T00:05:10.739Z,9.37
2023-04-17T00:07:41.697Z,9.70
2023-04-17T00:10:11.531Z,6.83
2023-04-17T00:12:40.139Z,7.13
2023-04-17T00:15:09.642Z,9.20
2023-04-17T00:17:37.731Z,10.93
2023-04-17T00:20:08.028Z,9.87
2023-04-17T00:22:36.425Z,8.00
2023-04-17T00:25:08.801Z,12.53
2023-04-17T00:27:40.961Z,13.87
2023-04-17T00:30:10.323Z,11.37
2023-04-17T00:32:38.317Z,14.07
2023-04-17T00:35:07.568Z,12.30
2023-04-17T00:37:36.674Z,13.50
2023-04-17T00:40:07.264Z,15.10
2023-04-17T00:42:35.525Z,12.70
2023-04-17T00:45:05.646Z,11.80
2023-04-17T00:47:34.624Z,16.60
2023-04-17T00:50:03.304Z,8.17
2023-04-17T00:52:31.651Z,8.73
2023-04-17T00:55:00.455Z,6.73
2023-04-17T00:57:30.556Z,6.27
2023-04-17T00:59:58.897Z,7.57
2023-04-17T01:02:27.402Z,6.90
2023-04-17T01:04:55.528Z,6.87
2023-04-17T01:07:23.726Z,8.63
2023-04-17T01:09:51.764Z,9.23
2023-04-17T01:12:20.893Z,10.10
2023-04-17T01:14:51.106Z,7.40
2023-04-17T01:17:20.838Z,6.73
2023-04-17T01:19:50.897Z,6.23
2023-04-17T01:22:21.530Z,5.53
2023-04-17T01:24:51.142Z,8.80
2023-04-17T01:27:19.286Z,7.57
2023-04-17T01:29:48.173Z,8.27
2023-04-17T01:32:16.181Z,5.90
2023-04-17T01:34:44.357Z,7.37
2023-04-17T01:37:12.762Z,7.07
2023-04-17T01:39:40.852Z,6.23
2023-04-17T01:42:10.208Z,8.57
2023-04-17T01:44:39.131Z,9.83
2023-04-17T01:47:07.279Z,6.43
2023-04-17T01:49:35.599Z,7.00
2023-04-17T01:52:03.707Z,10.00
2023-04-17T01:54:31.653Z,7.13
2023-04-17T01:56:59.657Z,5.50
2023-04-17T01:59:29.557Z,4.53
2023-04-17T02:01:57.785Z,11.10
2023-04-17T02:04:26.211Z,7.27
2023-04-17T02:06:54.690Z,6.70
2023-04-17T02:09:22.789Z,9.67
2023-04-17T02:11:50.970Z,10.37
2023-04-17T02:14:19.799Z,9.53
2023-04-17T02:16:50.187Z,10.03
2023-04-17T02:19:18.158Z,10.10
2023-04-17T02:21:47.167Z,9.97
2023-04-17T02:24:15.510Z,13.57
2023-04-17T02:26:43.677Z,10.23
2023-04-17T02:29:12.530Z,9.30
2023-04-17T02:31:41.631Z,8.67
2023-04-17T02:34:11.343Z,5.23
2023-04-17T02:36:39.763Z,10.57
2023-04-17T02:39:08.016Z,8.13
2023-04-17T02:41:36.113Z,13.87
2023-04-17T02:44:04.620Z,11.83
2023-04-17T02:46:32.758Z,10.07
2023-04-17T02:49:00.939Z,12.07
2023-04-17T02:51:31.106Z,12.13
2023-04-17T02:53:59.386Z,13.87
2023-04-17T02:56:27.582Z,12.87
2023-04-17T02:58:56.137Z,10.57
2023-04-17T03:01:24.282Z,10.70
2023-04-17T03:03:53.003Z,10.60
2023-04-17T03:06:21.762Z,8.63
2023-04-17T03:08:51.587Z,12.93
2023-04-17T03:11:20.088Z,11.20
2023-04-17T03:13:48.325Z,10.50
2023-04-17T03:16:16.623Z,9.57
2023-04-17T03:18:44.800Z,7.90
2023-04-17T03:21:13.299Z,10.30
2023-04-17T03:23:41.498Z,11.23
2023-04-17T03:26:10.981Z,10.50
2023-04-17T03:28:39.142Z,9.50
2023-04-17T03:31:07.394Z,9.37
2023-04-17T03:33:35.435Z,10.73
2023-04-17T03:36:03.843Z,9.53
2023-04-17T03:38:31.796Z,10.13
2023-04-17T03:41:00.099Z,6.37
2023-04-17T03:43:29.564Z,9.67
2023-04-17T03:45:57.752Z,7.70
2023-04-17T03:48:25.885Z,8.10
2023-04-17T03:50:54.046Z,7.83
2023-04-17T03:53:22.309Z,12.30
2023-04-17T03:55:50.619Z,10.80
2023-04-17T03:58:18.627Z,9.47
2023-04-17T04:00:48.995Z,8.93
2023-04-17T04:03:17.079Z,8.37
2023-04-17T04:05:45.127Z,8.40
2023-04-17T04:08:13.375Z,13.40
2023-04-17T04:10:44.327Z,7.77
2023-04-17T04:13:13.218Z,9.10
2023-04-17T04:15:41.440Z,8.27
2023-04-17T04:18:12.636Z,7.83
2023-04-17T04:20:40.635Z,10.13
2023-04-17T04:23:08.668Z,8.87
2023-04-17T04:25:36.768Z,5.97
2023-04-17T04:28:06.441Z,7.10
2023-04-17T04:30:36.003Z,9.37
2023-04-17T04:33:06.119Z,6.90
2023-04-17T04:35:38.223Z,6.33
2023-04-17T04:38:06.845Z,7.03
2023-04-17T04:40:39.309Z,10.87
2023-04-17T04:43:07.748Z,10.70
2023-04-17T04:45:35.862Z,6.50
2023-04-17T04:48:04.636Z,6.47
2023-04-17T04:50:32.621Z,5.30
2023-04-17T04:53:02.019Z,7.40
2023-04-17T04:55:30.951Z,6.57
2023-04-17T04:57:58.854Z,8.30
2023-04-17T05:00:27.270Z,8.20
2023-04-17T05:02:55.430Z,6.10
2023-04-17T05:05:23.799Z,4.23
2023-04-17T05:07:53.534Z,6.30
2023-04-17T05:10:23.253Z,9.43
2023-04-17T05:12:51.647Z,8.07
2023-04-17T05:15:20.029Z,6.33
2023-04-17T05:17:48.117Z,9.53
2023-04-17T05:20:18.946Z,10.17
2023-04-17T05:22:47.234Z,7.37
2023-04-17T05:25:16.350Z,8.20
2023-04-17T05:27:46.542Z,8.67
2023-04-17T05:30:15.931Z,6.87
2023-04-17T05:32:44.048Z,7.20
2023-04-17T05:35:12.385Z,8.87
2023-04-17T05:37:40.751Z,7.73
2023-04-17T05:40:10.430Z,8.57
2023-04-17T05:42:38.763Z,6.77
2023-04-17T05:45:09.306Z,10.13
2023-04-17T05:47:38.543Z,7.00
2023-04-17T05:50:08.338Z,6.30
2023-04-17T05:52:38.828Z,6.93
2023-04-17T05:55:08.490Z,11.83
2023-04-17T05:57:36.499Z,9.40
2023-04-17T06:00:10.735Z,9.93
2023-04-17T06:02:41.271Z,8.53
2023-04-17T06:05:10.306Z,6.63
2023-04-17T06:07:38.867Z,10.30
2023-04-17T06:10:08.827Z,6.77
2023-04-17T06:12:37.281Z,6.47
2023-04-17T06:15:07.458Z,8.23
2023-04-17T06:17:37.121Z,8.87
2023-04-17T06:20:10.337Z,9.27
2023-04-17T06:22:39.251Z,9.27
2023-04-17T06:25:08.600Z,6.30
2023-04-17T06:27:37.240Z,9.00
2023-04-17T06:30:06.974Z,5.40
2023-04-17T06:32:35.276Z,8.70
2023-04-17T06:35:03.994Z,3.40
2023-04-17T06:37:33.798Z,8.53
2023-04-17T06:40:02.046Z,6.20
2023-04-17T06:42:33.998Z,5.27
2023-04-17T06:45:02.235Z,8.07
2023-04-17T06:47:30.323Z,7.17
2023-04-17T06:50:00.222Z,7.47
2023-04-17T06:52:28.201Z,12.30
2023-04-17T06:54:58.021Z,9.93
2023-04-17T06:57:26.310Z,10.43
2023-04-17T06:59:54.259Z,9.53
2023-04-17T07:02:22.714Z,6.27
2023-04-17T07:04:51.106Z,13.67
2023-04-17T07:07:19.150Z,9.23
2023-04-17T07:09:48.254Z,7.83
2023-04-17T07:12:20.022Z,8.20
2023-04-17T07:14:47.904Z,8.70
2023-04-17T07:17:16.059Z,10.87
2023-04-17T07:19:45.071Z,7.93
2023-04-17T07:22:13.433Z,8.20
2023-04-17T07:24:41.380Z,11.47
2023-04-17T07:27:09.521Z,9.50
2023-04-17T07:29:40.030Z,7.60
2023-04-17T07:32:08.053Z,7.50
2023-04-17T07:34:37.808Z,7.60
2023-04-17T07:37:06.383Z,8.13
2023-04-17T07:39:34.452Z,7.83
2023-04-17T07:42:06.460Z,11.83
2023-04-17T07:44:34.701Z,9.00
2023-04-17T07:47:04.307Z,8.10
2023-04-17T07:49:32.626Z,11.03
2023-04-17T07:52:03.175Z,9.00
2023-04-17T07:54:32.573Z,7.93
2023-04-17T07:57:03.674Z,10.83
2023-04-17T07:59:31.916Z,10.87
2023-04-17T08:02:00.091Z,6.73
2023-04-17T08:04:29.750Z,9.70
2023-04-17T08:06:58.065Z,7.17
2023-04-17T08:09:26.514Z,9.63
2023-04-17T08:11:57.888Z,8.73
2023-04-17T08:14:26.937Z,8.83
2023-04-17T08:16:54.833Z,9.00
2023-04-17T08:19:22.866Z,8.07
2023-04-17T08:21:52.250Z,8.93
2023-04-17T08:24:20.307Z,9.40
2023-04-17T08:26:51.870Z,6.63
2023-04-17T08:29:20.049Z,7.10
2023-04-17T08:31:48.068Z,10.77
2023-04-17T08:34:15.984Z,7.50
2023-04-17T08:36:44.517Z,6.90
2023-04-17T08:39:15.189Z,8.50
2023-04-17T08:41:50.326Z,8.17
2023-04-17T08:44:21.414Z,7.57
2023-04-17T08:46:52.909Z,6.87
2023-04-17T08:49:21.262Z,8.17
2023-04-17T08:51:49.163Z,8.20
2023-04-17T08:54:19.895Z,7.83
2023-04-17T08:56:48.002Z,9.77
2023-04-17T08:59:17.282Z,9.63
2023-04-17T09:02:03.608Z,8.07
2023-04-17T09:04:40.510Z,7.17
2023-04-17T09:07:10.111Z,5.70
2023-04-17T09:09:50.276Z,9.33
2023-04-17T09:12:18.955Z,9.50
2023-04-17T09:14:47.019Z,6.30
2023-04-17T09:17:17.415Z,9.00
2023-04-17T09:20:10.607Z,12.50
2023-04-17T09:22:40.368Z,9.73
2023-04-17T09:25:18.741Z,8.20
2023-04-17T09:27:47.448Z,5.80
2023-04-17T09:30:15.770Z,6.07
2023-04-17T09:32:44.205Z,9.50
2023-04-17T09:35:12.508Z,5.63
2023-04-17T09:37:50.028Z,7.57
2023-04-17T09:40:20.419Z,7.30
2023-04-17T09:42:59.755Z,7.03
2023-04-17T09:45:33.483Z,6.57
2023-04-17T09:48:06.395Z,7.30
2023-04-17T09:50:36.421Z,7.77
2023-04-17T09:53:06.674Z,5.90
2023-04-17T09:55:38.317Z,5.30
2023-04-17T09:58:08.441Z,7.77
2023-04-17T10:00:38.017Z,5.87
2023-04-17T10:03:08.450Z,6.63
2023-04-17T10:05:37.503Z,8.20
2023-04-17T10:08:06.203Z,6.07
2023-04-17T10:10:37.534Z,6.67
2023-04-17T10:13:09.560Z,8.77
2023-04-17T10:15:37.975Z,6.10
2023-04-17T10:18:23.578Z,8.97
2023-04-17T10:21:00.137Z,6.47
2023-04-17T10:23:35.070Z,7.83
2023-04-17T10:26:37.984Z,7.50
2023-04-17T10:29:06.221Z,8.53
2023-04-17T10:32:14.013Z,5.33
2023-04-17T10:34:43.989Z,6.47
2023-04-17T10:37:15.490Z,6.77
2023-04-17T10:39:56.713Z,7.57
2023-04-17T10:42:28.049Z,6.03
2023-04-17T10:45:01.168Z,5.87
2023-04-17T10:47:34.199Z,7.40
2023-04-17T10:50:04.384Z,6.60
2023-04-17T10:52:45.132Z,6.73
2023-04-17T10:55:17.435Z,5.93
2023-04-17T10:57:59.892Z,6.03
2023-04-17T11:00:37.078Z,5.80
2023-04-17T11:03:08.080Z,6.93
2023-04-17T11:05:36.771Z,6.53
2023-04-17T11:08:04.817Z,6.63
2023-04-17T11:10:37.436Z,5.83
2023-04-17T11:13:07.189Z,7.10
2023-04-17T11:15:36.610Z,8.07
2023-04-17T11:18:05.462Z,8.67
2023-04-17T11:20:37.207Z,9.47
2023-04-17T11:23:06.852Z,6.13
2023-04-17T11:25:36.132Z,8.20
2023-04-17T11:28:08.282Z,7.10
2023-04-17T11:30:37.878Z,7.83
2023-04-17T11:33:07.855Z,11.30
2023-04-17T11:35:37.638Z,6.03
2023-04-17T11:38:17.965Z,9.50
2023-04-17T11:40:47.760Z,7.10
2023-04-17T11:43:18.005Z,8.60
2023-04-17T11:45:47.948Z,9.10
2023-04-17T11:48:17.036Z,7.97
2023-04-17T11:50:46.017Z,7.40
2023-04-17T11:53:15.924Z,8.03
2023-04-17T11:55:43.895Z,7.63
2023-04-17T11:58:14.079Z,6.30
2023-04-17T12:00:43.654Z,6.27
2023-04-17T12:03:38.729Z,6.37
2023-04-17T12:06:07.525Z,7.73
2023-04-17T12:08:45.112Z,6.70
2023-04-17T12:11:25.885Z,6.93
2023-04-17T12:13:54.679Z,6.27
2023-04-17T12:16:25.924Z,5.97
2023-04-17T12:18:54.338Z,6.13
2023-04-17T12:21:23.989Z,6.77
2023-04-17T12:23:52.763Z,5.80
2023-04-17T12:26:21.435Z,6.57
2023-04-17T12:28:49.611Z,5.03
2023-04-17T12:31:17.688Z,8.63
2023-04-17T12:33:47.821Z,6.63
2023-04-17T12:36:16.465Z,7.03
2023-04-17T12:38:44.485Z,7.30
2023-04-17T12:41:12.422Z,9.03
2023-04-17T12:43:40.397Z,7.43
2023-04-17T12:46:08.373Z,7.97
2023-04-17T12:48:36.337Z,5.83
2023-04-17T12:51:06.083Z,6.90
2023-04-17T12:53:34.483Z,7.80
2023-04-17T12:56:03.039Z,6.53
2023-04-17T12:58:31.286Z,6.97
2023-04-17T13:01:00.039Z,12.77
2023-04-17T13:03:28.137Z,6.20
2023-04-17T13:05:56.137Z,6.20
2023-04-17T13:08:25.406Z,5.40
2023-04-17T13:10:53.534Z,5.03
2023-04-17T13:13:21.484Z,4.23
2023-04-17T13:15:50.090Z,3.83
2023-04-17T13:18:18.046Z,3.80
2023-04-17T13:20:47.588Z,3.53
2023-04-17T13:23:16.668Z,3.80
2023-04-17T13:25:46.257Z,3.97
2023-04-17T13:28:14.559Z,3.10
2023-04-17T13:30:42.791Z,6.80
2023-04-17T13:33:11.043Z,2.87
2023-04-17T13:35:39.413Z,3.80
2023-04-17T13:38:08.232Z,4.20
2023-04-17T13:40:38.692Z,3.53
2023-04-17T13:43:09.179Z,4.10
2023-04-17T13:45:37.268Z,4.13
2023-04-17T13:48:05.708Z,4.33
2023-04-17T13:50:33.603Z,4.07
2023-04-17T13:53:01.905Z,5.63
2023-04-17T13:55:30.012Z,4.33
2023-04-17T13:57:58.714Z,2.93
2023-04-17T14:00:28.308Z,2.90
2023-04-17T14:02:56.366Z,4.23
2023-04-17T14:05:24.650Z,4.00
2023-04-17T14:07:52.707Z,6.03
2023-04-17T14:10:20.991Z,3.40
2023-04-17T14:12:49.478Z,3.27
2023-04-17T14:15:17.657Z,3.63
2023-04-17T14:17:47.782Z,3.90
2023-04-17T14:20:18.078Z,3.43
2023-04-17T14:22:47.207Z,4.53
2023-04-17T14:25:16.691Z,5.47
2023-04-17T14:27:44.923Z,3.63
2023-04-17T14:30:13.659Z,4.43
2023-04-17T14:32:41.738Z,7.63
2023-04-17T14:35:13.380Z,3.67
2023-04-17T14:37:42.026Z,5.17
2023-04-17T14:40:10.931Z,3.40
2023-04-17T14:42:51.287Z,3.83
2023-04-17T14:45:22.333Z,4.87
2023-04-17T14:47:50.739Z,7.57
2023-04-17T14:50:20.413Z,3.90
2023-04-17T14:52:48.391Z,3.83
2023-04-17T14:55:16.638Z,4.00
2023-04-17T14:57:44.779Z,4.60
2023-04-17T15:00:13.801Z,4.63
2023-04-17T15:02:42.002Z,3.47
2023-04-17T15:05:11.003Z,3.17
2023-04-17T15:07:40.353Z,3.60
2023-04-17T15:10:09.450Z,6.83
2023-04-17T15:12:37.387Z,3.57
2023-04-17T15:15:06.343Z,4.10
2023-04-17T15:17:37.509Z,4.37
2023-04-17T15:20:07.180Z,4.23
2023-04-17T15:22:35.262Z,3.37
2023-04-17T15:25:06.351Z,4.20
2023-04-17T15:27:34.407Z,5.03
2023-04-17T15:30:05.137Z,3.97
2023-04-17T15:32:35.759Z,3.33
2023-04-17T15:35:04.427Z,2.77
2023-04-17T15:37:32.978Z,3.30
2023-04-17T15:40:01.300Z,3.50
2023-04-17T15:42:30.819Z,3.13
2023-04-17T15:44:58.763Z,2.97
2023-04-17T15:47:27.048Z,3.37
2023-04-17T15:49:55.257Z,2.83
2023-04-17T15:52:24.599Z,2.83
2023-04-17T15:54:52.560Z,2.33
2023-04-17T15:57:21.073Z,2.30
2023-04-17T15:59:51.562Z,2.20
2023-04-17T16:02:19.791Z,3.27
2023-04-17T16:04:47.960Z,2.97
2023-04-17T16:07:17.174Z,2.50
2023-04-17T16:09:46.742Z,2.93
2023-04-17T16:12:15.057Z,2.30
2023-04-17T16:14:43.102Z,2.20
2023-04-17T16:17:12.625Z,1.90
2023-04-17T16:19:40.737Z,2.07
2023-04-17T16:22:08.715Z,2.30
2023-04-17T16:24:36.783Z,3.10
2023-04-17T16:27:05.166Z,1.83
2023-04-17T16:29:33.036Z,2.10
2023-04-17T16:32:01.054Z,2.60
2023-04-17T16:34:30.581Z,3.33
2023-04-17T16:36:58.647Z,3.83
2023-04-17T16:39:26.965Z,2.00
2023-04-17T16:41:56.317Z,3.33
2023-04-17T16:44:26.531Z,2.37
2023-04-17T16:47:11.907Z,2.63
2023-04-17T16:49:41.839Z,3.43
2023-04-17T16:52:10.181Z,2.73
2023-04-17T16:54:38.236Z,2.50
2023-04-17T16:57:06.797Z,3.93
2023-04-17T16:59:35.038Z,4.80
2023-04-17T17:02:03.090Z,4.63
2023-04-17T17:04:31.437Z,7.67
2023-04-17T17:07:01.102Z,5.47
2023-04-17T17:09:33.479Z,4.57
2023-04-17T17:12:01.584Z,4.50
2023-04-17T17:14:29.456Z,5.23
2023-04-17T17:16:57.538Z,8.17
2023-04-17T17:19:25.564Z,3.80
2023-04-17T17:21:55.298Z,4.13
2023-04-17T17:24:24.994Z,4.83
2023-04-17T17:26:53.060Z,5.13
2023-04-17T17:29:21.129Z,3.80
2023-04-17T17:31:49.332Z,4.80
2023-04-17T17:34:26.264Z,5.47
2023-04-17T17:36:56.067Z,5.07
2023-04-17T17:39:28.502Z,2.63
2023-04-17T17:41:58.579Z,3.20
2023-04-17T17:44:32.173Z,2.80
2023-04-17T17:47:00.151Z,3.03
2023-04-17T17:49:28.053Z,2.83
2023-04-17T17:51:56.615Z,2.77
2023-04-17T17:54:26.338Z,3.37
2023-04-17T17:56:54.358Z,2.87
2023-04-17T17:59:22.732Z,3.93
2023-04-17T18:01:50.710Z,2.90
2023-04-17T18:04:19.364Z,3.50
2023-04-17T18:06:48.096Z,4.87
2023-04-17T18:09:16.070Z,3.30
2023-04-17T18:11:45.639Z,4.00
2023-04-17T18:14:13.926Z,4.20
2023-04-17T18:16:43.154Z,3.53
2023-04-17T18:19:11.182Z,3.43
2023-04-17T18:21:39.885Z,3.83
2023-04-17T18:24:08.807Z,3.57
2023-04-17T18:26:36.715Z,3.33
2023-04-17T18:29:07.459Z,4.83
2023-04-17T18:31:38.559Z,3.83
2023-04-17T18:34:06.511Z,6.07
2023-04-17T18:36:34.980Z,5.97
2023-04-17T18:39:03.531Z,5.07
2023-04-17T18:41:31.912Z,5.57
2023-04-17T18:44:00.027Z,6.33
2023-04-17T18:46:30.554Z,4.77
2023-04-17T18:48:58.938Z,8.40
2023-04-17T18:51:27.203Z,6.13
2023-04-17T18:53:55.290Z,4.10
2023-04-17T18:56:24.077Z,4.77
2023-04-17T18:58:52.783Z,3.83
2023-04-17T19:01:21.027Z,4.60
2023-04-17T19:03:51.562Z,3.90
2023-04-17T19:06:19.939Z,3.63
2023-04-17T19:08:47.966Z,5.03
2023-04-17T19:11:16.246Z,3.00
2023-04-17T19:13:45.503Z,5.30
2023-04-17T19:16:14.142Z,4.73
2023-04-17T19:18:42.389Z,4.27
2023-04-17T19:21:11.870Z,4.00
2023-04-17T19:23:39.881Z,5.37
2023-04-17T19:26:09.211Z,4.10
2023-04-17T19:28:37.500Z,4.70
2023-04-17T19:31:06.580Z,5.03
2023-04-17T19:33:35.370Z,4.57
2023-04-17T19:36:04.345Z,5.23
2023-04-17T19:38:34.164Z,6.47
2023-04-17T19:41:24.934Z,5.27
2023-04-17T19:43:54.365Z,5.33
2023-04-17T19:46:23.627Z,4.50
2023-04-17T19:48:52.781Z,5.03
2023-04-17T19:51:21.135Z,5.27
2023-04-17T19:53:53.651Z,5.50
2023-04-17T19:56:22.358Z,5.43
2023-04-17T19:58:51.356Z,7.17
2023-04-17T20:01:20.125Z,4.40
2023-04-17T20:03:48.372Z,7.17
2023-04-17T20:06:16.441Z,9.53
2023-04-17T20:08:45.320Z,6.83
2023-04-17T20:11:19.403Z,4.67
2023-04-17T20:13:48.053Z,4.37
2023-04-17T20:16:16.170Z,5.73
2023-04-17T20:18:45.844Z,5.50
2023-04-17T20:21:13.995Z,5.80
2023-04-17T20:23:42.592Z,4.80
2023-04-17T20:26:11.868Z,5.17
2023-04-17T20:28:41.446Z,6.03
2023-04-17T20:31:09.674Z,5.60
2023-04-17T20:33:37.870Z,4.73
2023-04-17T20:36:07.171Z,4.93
2023-04-17T20:38:35.717Z,6.70
2023-04-17T20:41:04.702Z,6.00
2023-04-17T20:43:33.344Z,5.07
2023-04-17T20:46:03.296Z,5.87
2023-04-17T20:48:31.422Z,10.23
2023-04-17T20:51:05.530Z,6.30
2023-04-17T20:53:33.666Z,6.97
2023-04-17T20:56:01.605Z,8.60
2023-04-17T20:58:30.636Z,9.40
2023-04-17T21:01:01.626Z,10.27
2023-04-17T21:03:32.396Z,8.93
2023-04-17T21:06:00.871Z,8.93
2023-04-17T21:08:29.094Z,8.03
2023-04-17T21:10:57.169Z,8.23
2023-04-17T21:13:25.420Z,7.87
2023-04-17T21:15:53.598Z,7.80
2023-04-17T21:18:21.477Z,9.93
2023-04-17T21:20:51.025Z,11.83
2023-04-17T21:23:20.192Z,12.07
2023-04-17T21:25:48.602Z,8.57
2023-04-17T21:28:17.169Z,8.33
2023-04-17T21:30:45.279Z,8.67
2023-04-17T21:33:13.244Z,9.37
2023-04-17T21:35:41.482Z,9.30
2023-04-17T21:38:10.935Z,8.83
2023-04-17T21:40:50.224Z,7.87
2023-04-17T21:43:19.673Z,9.63
2023-04-17T21:45:48.013Z,11.60
2023-04-17T21:48:16.113Z,11.77
2023-04-17T21:50:44.198Z,11.33
2023-04-17T21:53:13.463Z,14.07
2023-04-17T21:55:41.647Z,11.90
2023-04-17T21:58:09.987Z,10.70
2023-04-17T22:00:38.058Z,10.67
2023-04-17T22:03:06.347Z,12.27
2023-04-17T22:05:34.287Z,11.33
2023-04-17T22:08:02.798Z,12.47
2023-04-17T22:10:32.209Z,10.80
2023-04-17T22:13:00.283Z,10.70
2023-04-17T22:15:28.381Z,11.57
2023-04-17T22:17:59.009Z,12.20
2023-04-17T22:20:27.280Z,12.27
2023-04-17T22:22:56.062Z,12.10
2023-04-17T22:25:24.012Z,12.30
2023-04-17T22:27:53.564Z,11.60
2023-04-17T22:30:22.816Z,11.17
2023-04-17T22:32:51.424Z,9.40
2023-04-17T22:35:20.267Z,8.73
2023-04-17T22:37:48.512Z,9.73
2023-04-17T22:40:16.617Z,9.43
2023-04-17T22:42:44.759Z,12.67
2023-04-17T22:45:14.069Z,8.97
2023-04-17T22:47:42.181Z,8.70
2023-04-17T22:50:11.960Z,7.60
2023-04-17T22:52:40.141Z,9.07
2023-04-17T22:55:08.656Z,9.73
2023-04-17T22:57:37.190Z,11.60
2023-04-17T23:00:09.108Z,10.93
2023-04-17T23:02:38.842Z,9.73
2023-04-17T23:05:08.320Z,9.80
2023-04-17T23:07:36.290Z,8.70
2023-04-17T23:10:04.562Z,10.57
2023-04-17T23:12:33.113Z,10.60
2023-04-17T23:15:01.092Z,12.67
2023-04-17T23:17:29.584Z,12.40
2023-04-17T23:20:00.371Z,9.57
2023-04-17T23:22:30.057Z,12.57
2023-04-17T23:25:00.521Z,12.60
2023-04-17T23:27:28.640Z,10.37
2023-04-17T23:29:56.788Z,12.63
2023-04-17T23:32:24.693Z,14.73
2023-04-17T23:34:53.024Z,16.23
2023-04-17T23:37:22.553Z,14.73
2023-04-17T23:39:50.413Z,13.93
2023-04-17T23:42:18.670Z,15.47
2023-04-17T23:44:46.742Z,16.97
2023-04-17T23:47:15.172Z,18.03
2023-04-17T23:49:43.435Z,18.73
2023-04-17T23:52:11.556Z,17.43
2023-04-17T23:54:41.097Z,19.27
2023-04-17T23:57:09.140Z,20.37
2023-04-17T23:59:37.264Z,18.27
